createdAt,value
2019-02-04T00:00:24.980Z,2.60
2019-02-04T00:02:53.855Z,2.52
2019-02-04T00:05:22.646Z,2.37
2019-02-04T00:07:51.527Z,3.10
2019-02-04T00:10:20.607Z,3.15
2019-02-04T00:12:52.665Z,2.20
2019-02-04T00:15:22.013Z,2.40
2019-02-04T00:17:51.003Z,3.12
2019-02-04T00:20:19.984Z,3.02
2019-02-04T00:22:49.384Z,3.77
2019-02-04T00:25:18.291Z,2.77
2019-02-04T00:27:47.159Z,2.90
2019-02-04T00:30:19.146Z,2.45
2019-02-04T00:32:48.130Z,2.85
2019-02-04T00:35:17.020Z,3.00
2019-02-04T00:37:46.108Z,2.67
2019-02-04T00:40:26.332Z,2.92
2019-02-04T00:42:55.170Z,3.05
2019-02-04T00:45:24.040Z,2.77
2019-02-04T00:47:52.940Z,2.90
2019-02-04T00:50:22.454Z,3.65
2019-02-04T00:52:51.229Z,3.15
2019-02-04T00:55:20.120Z,2.87
2019-02-04T00:57:48.894Z,3.40
2019-02-04T01:00:26.898Z,2.50
2019-02-04T01:02:56.001Z,3.05
2019-02-04T01:05:24.889Z,3.42
2019-02-04T01:07:53.683Z,3.17
2019-02-04T01:10:28.509Z,3.83
2019-02-04T01:12:57.874Z,3.08
2019-02-04T01:15:26.799Z,2.60
2019-02-04T01:17:55.693Z,3.02
2019-02-04T01:20:31.767Z,3.33
2019-02-04T01:23:00.653Z,3.45
2019-02-04T01:25:29.644Z,3.17
2019-02-04T01:27:58.652Z,2.55
2019-02-04T01:30:27.524Z,3.27
2019-02-04T01:32:56.414Z,3.92
2019-02-04T01:35:25.605Z,3.33
2019-02-04T01:37:54.714Z,3.47
2019-02-04T01:40:25.300Z,3.10
2019-02-04T01:42:55.036Z,3.52
2019-02-04T01:45:24.491Z,3.17
2019-02-04T01:47:53.445Z,4.28
2019-02-04T01:50:23.147Z,3.10
2019-02-04T01:52:52.455Z,4.65
2019-02-04T01:55:21.352Z,4.95
2019-02-04T01:57:52.139Z,3.55
2019-02-04T02:00:23.834Z,3.37
2019-02-04T02:02:52.741Z,2.90
2019-02-04T02:05:21.614Z,3.50
2019-02-04T02:07:50.499Z,3.22
2019-02-04T02:10:21.459Z,3.02
2019-02-04T02:12:50.261Z,3.27
2019-02-04T02:15:19.649Z,3.00
2019-02-04T02:17:49.239Z,3.83
2019-02-04T02:20:20.174Z,3.65
2019-02-04T02:22:48.962Z,3.67
2019-02-04T02:25:17.859Z,3.30
2019-02-04T02:27:46.529Z,3.95
2019-02-04T02:30:17.977Z,3.45
2019-02-04T02:32:46.879Z,4.05
2019-02-04T02:35:15.888Z,2.95
2019-02-04T02:37:44.862Z,3.20
2019-02-04T02:40:17.059Z,3.58
2019-02-04T02:42:45.929Z,3.30
2019-02-04T02:45:15.229Z,3.70
2019-02-04T02:47:44.009Z,4.90
2019-02-04T02:50:14.434Z,3.62
2019-02-04T02:52:43.424Z,3.85
2019-02-04T02:55:17.557Z,3.52
2019-02-04T02:57:46.450Z,4.20
2019-02-04T03:00:23.724Z,3.65
2019-02-04T03:02:52.828Z,3.77
2019-02-04T03:05:21.714Z,3.72
2019-02-04T03:07:50.606Z,3.50
2019-02-04T03:10:27.687Z,3.00
2019-02-04T03:12:56.574Z,3.02
2019-02-04T03:15:25.461Z,3.58
2019-02-04T03:17:54.246Z,3.08
2019-02-04T03:20:23.525Z,2.85
2019-02-04T03:22:52.453Z,3.08
2019-02-04T03:25:21.853Z,3.83
2019-02-04T03:27:50.832Z,4.30
2019-02-04T03:30:31.330Z,3.95
2019-02-04T03:33:00.236Z,3.22
2019-02-04T03:35:29.378Z,3.22
2019-02-04T03:37:58.684Z,2.55
2019-02-04T03:40:31.937Z,3.75
2019-02-04T03:43:00.764Z,3.47
2019-02-04T03:45:29.666Z,3.52
2019-02-04T03:48:07.014Z,3.35
2019-02-04T03:50:30.627Z,3.87
2019-02-04T03:52:59.598Z,2.92
2019-02-04T03:55:28.810Z,2.72
2019-02-04T03:57:57.694Z,2.65
2019-02-04T04:00:29.249Z,3.35
2019-02-04T04:02:58.045Z,3.20
2019-02-04T04:05:27.227Z,2.98
2019-02-04T04:07:56.231Z,3.17
2019-02-04T04:10:25.119Z,3.58
2019-02-04T04:12:54.109Z,3.02
2019-02-04T04:15:23.108Z,2.70
2019-02-04T04:17:51.989Z,3.65
2019-02-04T04:20:21.289Z,3.20
2019-02-04T04:22:50.173Z,3.65
2019-02-04T04:25:19.292Z,2.12
2019-02-04T04:27:48.579Z,2.72
2019-02-04T04:30:22.785Z,2.08
2019-02-04T04:32:51.785Z,2.55
2019-02-04T04:35:20.685Z,3.47
2019-02-04T04:37:49.683Z,4.03
2019-02-04T04:40:18.564Z,3.10
2019-02-04T04:42:47.344Z,3.75
2019-02-04T04:45:20.963Z,3.05
2019-02-04T04:47:50.454Z,4.35
2019-02-04T04:50:19.371Z,3.95
2019-02-04T04:52:48.243Z,3.80
2019-02-04T04:55:25.184Z,3.08
2019-02-04T04:57:54.015Z,3.62
2019-02-04T05:00:27.909Z,3.77
2019-02-04T05:02:56.906Z,3.45
2019-02-04T05:05:25.794Z,3.25
2019-02-04T05:07:54.684Z,3.37
2019-02-04T05:10:23.684Z,5.00
2019-02-04T05:12:52.579Z,3.17
2019-02-04T05:15:24.229Z,4.03
2019-02-04T05:17:53.530Z,3.90
2019-02-04T05:20:22.309Z,3.67
2019-02-04T05:22:51.209Z,4.87
2019-02-04T05:25:20.299Z,3.98
2019-02-04T05:27:49.189Z,3.70
2019-02-04T05:30:19.724Z,4.00
2019-02-04T05:32:48.704Z,3.22
2019-02-04T05:35:17.599Z,2.92
2019-02-04T05:37:46.484Z,4.28
2019-02-04T05:40:18.252Z,3.40
2019-02-04T05:42:47.558Z,3.92
2019-02-04T05:45:17.887Z,3.85
2019-02-04T05:47:46.754Z,3.50
2019-02-04T05:50:17.594Z,3.37
2019-02-04T05:52:46.795Z,3.60
2019-02-04T05:55:16.318Z,4.08
2019-02-04T05:57:45.203Z,2.98
2019-02-04T06:00:27.187Z,4.78
2019-02-04T06:02:55.969Z,2.77
2019-02-04T06:05:24.761Z,3.72
2019-02-04T06:07:53.700Z,3.70
2019-02-04T06:10:22.556Z,3.55
2019-02-04T06:12:51.434Z,3.08
2019-02-04T06:15:20.522Z,3.50
2019-02-04T06:17:49.424Z,3.15
2019-02-04T06:20:23.040Z,3.60
2019-02-04T06:22:52.609Z,4.12
2019-02-04T06:25:21.530Z,3.98
2019-02-04T06:27:50.421Z,3.40
2019-02-04T06:30:19.613Z,3.80
2019-02-04T06:32:48.499Z,4.22
2019-02-04T06:35:17.892Z,4.28
2019-02-04T06:37:47.344Z,4.22
2019-02-04T06:40:18.963Z,3.42
2019-02-04T06:42:47.849Z,4.20
2019-02-04T06:45:18.126Z,3.58
2019-02-04T06:47:46.959Z,3.47
2019-02-04T06:50:18.930Z,3.62
2019-02-04T06:52:48.021Z,3.05
2019-02-04T06:55:19.984Z,3.25
2019-02-04T06:57:48.883Z,2.85
2019-02-04T07:00:18.584Z,2.98
2019-02-04T07:02:47.466Z,3.30
2019-02-04T07:05:43.460Z,2.62
2019-02-04T07:08:06.764Z,3.17
2019-02-04T07:10:35.647Z,2.92
2019-02-04T07:13:04.644Z,2.90
2019-02-04T07:15:33.534Z,4.33
2019-02-04T07:18:02.424Z,4.42
2019-02-04T07:20:31.517Z,3.10
2019-02-04T07:23:00.404Z,3.67
2019-02-04T07:25:29.301Z,2.87
2019-02-04T07:27:58.294Z,3.22
2019-02-04T07:30:28.126Z,3.10
2019-02-04T07:32:57.199Z,3.80
2019-02-04T07:35:26.303Z,3.77
2019-02-04T07:37:55.198Z,3.42
2019-02-04T07:40:34.202Z,4.37
2019-02-04T07:43:03.218Z,3.77
2019-02-04T07:45:32.512Z,3.92
2019-02-04T07:48:01.599Z,3.42
2019-02-04T07:50:30.489Z,4.20
2019-02-04T07:52:59.380Z,2.80
2019-02-04T07:55:28.379Z,3.83
2019-02-04T07:57:57.837Z,2.90
2019-02-04T08:00:32.309Z,3.67
2019-02-04T08:03:01.194Z,3.45
2019-02-04T08:05:30.342Z,3.27
2019-02-04T08:07:59.483Z,4.90
2019-02-04T08:10:28.484Z,3.35
2019-02-04T08:13:01.374Z,3.35
2019-02-04T08:15:30.665Z,3.40
2019-02-04T08:17:59.563Z,3.55
2019-02-04T08:20:28.444Z,3.62
2019-02-04T08:22:57.645Z,3.42
2019-02-04T08:25:26.534Z,2.90
2019-02-04T08:27:55.934Z,2.92
2019-02-04T08:30:31.170Z,3.52
2019-02-04T08:33:00.073Z,3.67
2019-02-04T08:35:28.853Z,3.10
2019-02-04T08:37:57.749Z,3.27
2019-02-04T08:40:26.658Z,3.20
2019-02-04T08:42:56.039Z,3.77
2019-02-04T08:45:25.126Z,3.37
2019-02-04T08:47:53.814Z,3.20
2019-02-04T08:50:24.453Z,3.55
2019-02-04T08:52:53.539Z,2.70
2019-02-04T08:55:22.429Z,4.50
2019-02-04T08:57:51.840Z,3.45
2019-02-04T09:00:24.679Z,3.12
2019-02-04T09:02:53.504Z,3.75
2019-02-04T09:05:22.884Z,3.75
2019-02-04T09:07:51.915Z,2.20
2019-02-04T09:10:26.148Z,3.40
2019-02-04T09:12:56.857Z,2.90
2019-02-04T09:15:25.745Z,3.65
2019-02-04T09:17:54.643Z,3.67
2019-02-04T09:20:23.429Z,3.00
2019-02-04T09:22:52.414Z,3.15
2019-02-04T09:25:24.374Z,2.72
2019-02-04T09:27:53.884Z,3.00
2019-02-04T09:30:24.429Z,4.12
2019-02-04T09:32:53.513Z,3.98
2019-02-04T09:35:23.215Z,3.20
2019-02-04T09:37:52.104Z,3.50
2019-02-04T09:40:27.254Z,3.92
2019-02-04T09:42:56.159Z,3.77
2019-02-04T09:45:27.653Z,3.50
2019-02-04T09:47:55.671Z,2.90
2019-02-04T09:50:27.049Z,3.45
2019-02-04T09:52:55.778Z,3.85
2019-02-04T09:55:27.734Z,3.08
2019-02-04T09:57:56.640Z,3.77
2019-02-04T10:00:30.971Z,3.80
2019-02-04T10:02:59.857Z,3.45
2019-02-04T10:05:28.739Z,3.70
2019-02-04T10:07:57.629Z,3.92
2019-02-04T10:10:29.083Z,4.08
2019-02-04T10:12:57.969Z,3.47
2019-02-04T10:15:29.151Z,3.27
2019-02-04T10:17:58.114Z,3.37
2019-02-04T10:20:34.011Z,3.25
2019-02-04T10:22:58.284Z,3.30
2019-02-04T10:25:29.924Z,3.45
2019-02-04T10:27:58.819Z,2.85
2019-02-04T10:30:27.817Z,3.22
2019-02-04T10:32:56.984Z,3.22
2019-02-04T10:35:25.976Z,3.72
2019-02-04T10:37:54.997Z,3.37
2019-02-04T10:40:28.790Z,4.53
2019-02-04T10:42:57.668Z,3.87
2019-02-04T10:45:26.599Z,4.22
2019-02-04T10:47:55.808Z,4.33
2019-02-04T10:50:30.496Z,3.60
2019-02-04T10:52:59.678Z,3.92
2019-02-04T10:55:28.669Z,3.90
2019-02-04T10:57:57.605Z,4.37
2019-02-04T11:00:45.804Z,4.20
2019-02-04T11:03:14.725Z,3.90
2019-02-04T11:05:43.985Z,4.37
2019-02-04T11:08:14.137Z,4.10
2019-02-04T11:10:43.319Z,4.25
2019-02-04T11:13:16.324Z,4.05
2019-02-04T11:15:47.030Z,4.47
2019-02-04T11:18:16.044Z,4.95
2019-02-04T11:20:57.161Z,4.60
2019-02-04T11:23:15.752Z,4.50
2019-02-04T11:25:44.753Z,4.53
2019-02-04T11:28:13.960Z,4.70
2019-02-04T11:30:46.115Z,4.80
2019-02-04T11:33:15.107Z,4.60
2019-02-04T11:35:44.243Z,4.97
2019-02-04T11:38:13.300Z,4.22
2019-02-04T11:40:42.405Z,4.37
2019-02-04T11:43:12.872Z,4.28
2019-02-04T11:45:42.073Z,4.30
2019-02-04T11:48:12.885Z,3.83
2019-02-04T11:50:41.945Z,4.03
2019-02-04T11:53:10.929Z,3.70
2019-02-04T11:55:39.829Z,4.30
2019-02-04T11:58:08.921Z,3.75
2019-02-04T12:00:38.324Z,3.60
2019-02-04T12:03:09.411Z,3.55
2019-02-04T12:05:38.363Z,3.08
2019-02-04T12:08:07.526Z,3.98
2019-02-04T12:10:42.279Z,3.25
2019-02-04T12:13:11.274Z,3.60
2019-02-04T12:15:40.169Z,3.47
2019-02-04T12:18:09.169Z,3.52
2019-02-04T12:20:57.232Z,3.52
2019-02-04T12:23:26.090Z,4.03
2019-02-04T12:25:54.875Z,3.75
2019-02-04T12:28:23.979Z,3.70
2019-02-04T12:30:52.655Z,3.80
2019-02-04T12:33:21.554Z,4.00
2019-02-04T12:35:50.539Z,3.98
2019-02-04T12:38:19.445Z,3.95
2019-02-04T12:40:48.327Z,3.65
2019-02-04T12:43:17.425Z,4.03
2019-02-04T12:45:46.304Z,5.25
2019-02-04T12:48:15.213Z,3.65
2019-02-04T12:50:44.294Z,4.30
2019-02-04T12:53:13.479Z,3.90
2019-02-04T12:55:42.384Z,4.10
2019-02-04T12:58:11.569Z,4.92
2019-02-04T13:00:40.560Z,4.22
2019-02-04T13:03:09.470Z,3.92
2019-02-04T13:05:43.730Z,4.87
2019-02-04T13:08:13.079Z,4.00
2019-02-04T13:10:41.969Z,5.55
2019-02-04T13:13:13.625Z,3.95
2019-02-04T13:15:42.527Z,3.98
2019-02-04T13:18:11.405Z,4.60
2019-02-04T13:20:41.018Z,3.80
2019-02-04T13:23:09.899Z,4.55
2019-02-04T13:25:38.789Z,4.22
2019-02-04T13:28:12.392Z,4.50
2019-02-04T13:30:40.164Z,4.45
2019-02-04T13:33:08.940Z,4.37
2019-02-04T13:35:38.355Z,5.22
2019-02-04T13:38:07.244Z,4.80
2019-02-04T13:40:36.143Z,4.25
2019-02-04T13:43:05.024Z,4.50
2019-02-04T13:45:33.931Z,4.62
2019-02-04T13:48:03.116Z,3.83
2019-02-04T13:50:32.514Z,4.42
2019-02-04T13:53:01.423Z,4.37
2019-02-04T13:55:32.219Z,4.80
2019-02-04T13:58:01.231Z,3.90
2019-02-04T14:00:30.114Z,4.33
2019-02-04T14:02:59.960Z,4.97
2019-02-04T14:05:31.266Z,4.72
2019-02-04T14:08:00.569Z,5.10
2019-02-04T14:10:31.820Z,5.30
2019-02-04T14:13:00.818Z,5.45
2019-02-04T14:15:29.709Z,5.33
2019-02-04T14:17:59.017Z,5.08
2019-02-04T14:20:28.004Z,5.22
2019-02-04T14:22:56.784Z,5.03
2019-02-04T14:25:25.674Z,4.97
2019-02-04T14:27:54.714Z,4.95
2019-02-04T14:30:26.424Z,5.35
2019-02-04T14:32:55.319Z,5.75
2019-02-04T14:35:24.419Z,4.97
2019-02-04T14:37:53.714Z,4.83
2019-02-04T14:40:22.725Z,4.90
2019-02-04T14:42:59.703Z,3.65
2019-02-04T14:45:53.333Z,4.78
2019-02-04T14:48:42.935Z,5.20
2019-02-04T14:51:33.235Z,4.37
2019-02-04T14:54:37.399Z,4.22
2019-02-04T14:57:16.377Z,5.12
2019-02-04T14:59:48.457Z,4.37
2019-02-04T15:02:53.277Z,5.08
2019-02-04T15:05:31.176Z,4.78
2019-02-04T15:08:05.698Z,4.50
2019-02-04T15:10:37.976Z,6.00
2019-02-04T15:13:23.036Z,5.22
2019-02-04T15:16:03.926Z,5.05
2019-02-04T15:18:38.844Z,4.83
2019-02-04T15:21:29.141Z,5.33
2019-02-04T15:24:13.404Z,4.03
2019-02-04T15:26:48.847Z,4.17
2019-02-04T15:29:23.876Z,4.28
2019-02-04T15:32:17.326Z,5.28
2019-02-04T15:35:03.806Z,4.62
2019-02-04T15:37:29.023Z,4.53
2019-02-04T15:40:15.956Z,5.28
2019-02-04T15:42:54.168Z,5.17
2019-02-04T15:45:50.696Z,4.50
2019-02-04T15:48:21.024Z,5.45
2019-02-04T15:51:01.996Z,3.87
2019-02-04T15:53:30.996Z,5.17
2019-02-04T15:56:00.805Z,4.35
2019-02-04T15:58:30.096Z,4.15
2019-02-04T16:00:59.197Z,4.95
2019-02-04T16:03:27.981Z,3.70
2019-02-04T16:05:56.976Z,3.83
2019-02-04T16:08:25.993Z,4.35
2019-02-04T16:10:55.084Z,4.05
2019-02-04T16:13:24.476Z,4.97
2019-02-04T16:15:53.557Z,4.03
2019-02-04T16:18:22.957Z,4.80
2019-02-04T16:20:51.846Z,4.40
2019-02-04T16:23:20.736Z,4.03
2019-02-04T16:25:49.753Z,3.80
2019-02-04T16:28:18.936Z,3.98
2019-02-04T16:30:48.136Z,4.30
2019-02-04T16:33:17.136Z,3.90
2019-02-04T16:35:46.036Z,4.20
2019-02-04T16:38:15.016Z,3.95
2019-02-04T16:40:43.919Z,5.30
2019-02-04T16:43:13.556Z,4.90
2019-02-04T16:45:42.925Z,4.47
2019-02-04T16:48:11.816Z,4.40
2019-02-04T16:50:40.697Z,4.20
2019-02-04T16:53:10.873Z,5.70
2019-02-04T16:55:39.922Z,3.95
2019-02-04T16:58:18.424Z,5.12
2019-02-04T17:00:47.322Z,4.05
2019-02-04T17:03:18.753Z,4.20
2019-02-04T17:05:46.533Z,5.17
2019-02-04T17:08:15.614Z,5.53
2019-02-04T17:10:44.404Z,5.50
2019-02-04T17:13:13.365Z,5.50
2019-02-04T17:15:42.804Z,5.08
2019-02-04T17:18:12.008Z,5.05
2019-02-04T17:20:40.884Z,4.60
2019-02-04T17:23:21.702Z,4.90
2019-02-04T17:25:40.712Z,4.62
2019-02-04T17:28:09.603Z,5.30
2019-02-04T17:30:38.728Z,5.22
2019-02-04T17:33:07.599Z,3.60
2019-02-04T17:35:36.379Z,4.85
2019-02-04T17:38:05.579Z,5.87
2019-02-04T17:40:34.469Z,4.15
2019-02-04T17:43:03.359Z,5.45
2019-02-04T17:45:32.358Z,4.42
2019-02-04T17:48:01.250Z,4.80
2019-02-04T17:50:30.013Z,5.28
2019-02-04T17:52:59.018Z,5.10
2019-02-04T17:55:29.243Z,6.75
2019-02-04T17:57:58.147Z,5.87
2019-02-04T18:00:29.179Z,5.58
2019-02-04T18:02:58.096Z,6.22
2019-02-04T18:05:26.955Z,6.25
2019-02-04T18:07:56.054Z,7.10
2019-02-04T18:10:25.172Z,6.85
2019-02-04T18:12:54.044Z,6.33
2019-02-04T18:15:23.649Z,6.30
2019-02-04T18:17:52.539Z,6.20
2019-02-04T18:20:21.332Z,6.37
2019-02-04T18:22:50.424Z,6.30
2019-02-04T18:25:21.573Z,6.33
2019-02-04T18:27:50.453Z,5.42
2019-02-04T18:30:24.429Z,5.90
2019-02-04T18:32:53.119Z,6.22
2019-02-04T18:35:22.448Z,5.87
2019-02-04T18:37:51.458Z,4.62
2019-02-04T18:40:22.950Z,6.15
2019-02-04T18:42:52.299Z,6.22
2019-02-04T18:45:32.348Z,5.83
2019-02-04T18:48:01.256Z,5.83
2019-02-04T18:50:30.653Z,7.03
2019-02-04T18:52:59.638Z,5.55
2019-02-04T18:55:30.985Z,5.90
2019-02-04T18:57:59.658Z,5.10
2019-02-04T19:00:33.352Z,5.05
2019-02-04T19:03:03.334Z,5.28
2019-02-04T19:05:31.964Z,6.33
2019-02-04T19:08:00.764Z,5.30
2019-02-04T19:10:29.664Z,6.75
2019-02-04T19:12:58.434Z,7.28
2019-02-04T19:15:28.872Z,6.50
2019-02-04T19:18:04.004Z,5.35
2019-02-04T19:20:32.803Z,7.40
2019-02-04T19:23:01.693Z,7.50
2019-02-04T19:25:30.574Z,5.80
2019-02-04T19:27:59.359Z,6.42
2019-02-04T19:30:34.081Z,6.58
2019-02-04T19:33:02.882Z,7.87
2019-02-04T19:35:31.766Z,6.70
2019-02-04T19:38:00.449Z,7.53
2019-02-04T19:40:29.340Z,6.12
2019-02-04T19:42:58.439Z,6.10
2019-02-04T19:45:28.339Z,8.93
2019-02-04T19:47:57.241Z,8.68
2019-02-04T19:50:28.353Z,6.78
2019-02-04T19:52:57.279Z,6.45
2019-02-04T19:55:26.171Z,7.47
2019-02-04T19:57:55.160Z,8.33
2019-02-04T20:00:24.455Z,6.90
2019-02-04T20:02:53.951Z,7.83
2019-02-04T20:05:25.518Z,6.67
2019-02-04T20:07:54.284Z,7.53
2019-02-04T20:10:25.443Z,8.15
2019-02-04T20:12:54.333Z,6.55
2019-02-04T20:15:26.420Z,8.03
2019-02-04T20:17:55.292Z,6.08
2019-02-04T20:20:25.138Z,6.00
2019-02-04T20:22:53.991Z,6.85
2019-02-04T20:25:24.824Z,6.42
2019-02-04T20:27:54.051Z,7.12
2019-02-04T20:30:25.997Z,7.62
2019-02-04T20:32:54.915Z,9.35
2019-02-04T20:35:23.791Z,8.05
2019-02-04T20:37:52.771Z,9.43
2019-02-04T20:40:23.611Z,9.55
2019-02-04T20:42:52.927Z,7.20
2019-02-04T20:45:21.992Z,7.00
2019-02-04T20:47:52.238Z,7.25
2019-02-04T20:50:39.143Z,8.45
2019-02-04T20:53:08.030Z,7.12
2019-02-04T20:55:38.032Z,7.47
2019-02-04T20:58:06.947Z,8.80
2019-02-04T21:00:35.734Z,9.33
2019-02-04T21:03:04.818Z,8.05
2019-02-04T21:05:33.714Z,8.30
2019-02-04T21:08:02.491Z,7.65
2019-02-04T21:10:31.791Z,9.58
2019-02-04T21:13:00.708Z,7.55
2019-02-04T21:15:29.822Z,11.05
2019-02-04T21:17:58.681Z,8.20
2019-02-04T21:20:30.983Z,10.45
2019-02-04T21:23:01.471Z,10.20
2019-02-04T21:25:31.272Z,8.70
2019-02-04T21:28:00.372Z,10.40
2019-02-04T21:30:38.382Z,10.00
2019-02-04T21:33:07.476Z,9.70
2019-02-04T21:35:36.280Z,9.60
2019-02-04T21:38:05.439Z,9.15
2019-02-04T21:40:34.479Z,7.45
2019-02-04T21:43:03.342Z,9.73
2019-02-04T21:45:32.236Z,9.78
2019-02-04T21:48:01.318Z,9.03
2019-02-04T21:50:30.232Z,9.28
2019-02-04T21:52:59.111Z,9.63
2019-02-04T21:55:28.532Z,11.70
2019-02-04T21:57:57.298Z,10.05
2019-02-04T22:00:35.211Z,8.88
2019-02-04T22:03:04.002Z,8.68
2019-02-04T22:05:34.963Z,12.47
2019-02-04T22:08:04.225Z,12.43
2019-02-04T22:10:33.210Z,8.88
2019-02-04T22:13:02.129Z,9.50
2019-02-04T22:15:31.318Z,12.00
2019-02-04T22:18:00.210Z,9.60
2019-02-04T22:20:29.290Z,11.48
2019-02-04T22:22:58.393Z,11.48
2019-02-04T22:25:27.709Z,11.22
2019-02-04T22:27:56.453Z,12.25
2019-02-04T22:30:27.327Z,8.60
2019-02-04T22:32:56.228Z,11.83
2019-02-04T22:35:25.312Z,13.65
2019-02-04T22:37:54.431Z,13.68
2019-02-04T22:40:25.951Z,9.30
2019-02-04T22:42:54.731Z,8.40
2019-02-04T22:45:23.634Z,8.90
2019-02-04T22:47:52.749Z,11.12
2019-02-04T22:50:26.926Z,11.73
2019-02-04T22:52:56.031Z,9.63
2019-02-04T22:55:31.920Z,9.85
2019-02-04T22:57:56.637Z,9.85
2019-02-04T23:00:42.025Z,11.12
2019-02-04T23:03:11.719Z,10.03
2019-02-04T23:05:40.447Z,13.78
2019-02-04T23:08:09.351Z,10.53
2019-02-04T23:10:38.230Z,11.97
2019-02-04T23:13:07.552Z,12.03
2019-02-04T23:15:36.618Z,13.10
2019-02-04T23:18:05.831Z,11.93
2019-02-04T23:20:34.747Z,12.13
2019-02-04T23:23:04.054Z,11.55
2019-02-04T23:25:42.973Z,8.55
2019-02-04T23:28:03.329Z,10.08
2019-02-04T23:30:32.334Z,10.72
2019-02-04T23:33:01.535Z,13.30
2019-02-04T23:35:30.413Z,11.35
2019-02-04T23:37:59.409Z,13.28
2019-02-04T23:40:28.311Z,14.15
2019-02-04T23:42:57.182Z,13.08
2019-02-04T23:45:25.986Z,15.03
2019-02-04T23:47:54.871Z,14.68
2019-02-04T23:50:23.774Z,9.30
2019-02-04T23:52:52.851Z,14.18
2019-02-04T23:55:21.639Z,14.03
2019-02-04T23:57:50.531Z,14.33
